PWSweather.com
Personal Weather Stations
Station Observations
THAIWX
Pa Daet, Chiang MaiTH 50100

Pa DaetChiang MaiTH 50100

Lat: 18.766158, Lon: 98.97553

Elevation: 1007

Station Type: LaCrosse WS2315

http://www.ThaiWx.yolasite.com/

High Low Average
Temperature 91.8°F33.2°C 74.1°F23.4°C 81.8°F27.7°C
Dew Point 79.1°F26.2°C 73.2°F22.9°C 76.0°F24.4°C
Winds 1.1 mph 1.8 kmh Calm Calm Calm SECalm SE
Wind Gusts 2.0 mph3.2 kmh -- --
Humidity 98% 62% 84%
Pressure 29.90 in1012.5 mb 29.72 in1006.4 mb -
Precipitation 3.10 in78.7 mm - -
Hour Temp Dew Point Humidity Winds Wind Gusts Pressure Precip Precip Rate Daily Precip Total
12:04 AM 79.3°F26.3°C 74.4°F23.6°C 85% Calm Calm 0.7 mph1.1 kmh 29.84 in1010.5 mb 0.00 in0.0 mm 0.00 in0.0 mm 0.00 in0.0 mm
12:09 AM 79.3°F26.3°C 74.4°F23.6°C 85% Calm Calm 0.7 mph1.1 kmh 29.83 in1010.2 mb 0.00 in0.0 mm 0.00 in0.0 mm 0.00 in0.0 mm
12:13 AM 79.3°F26.3°C 74.4°F23.6°C 85% Calm Calm -- 29.83 in1010.2 mb 0.00 in0.0 mm 0.00 in0.0 mm 0.00 in0.0 mm
12:19 AM 79.3°F26.3°C 74.8°F23.8°C 86% Calm Calm 0.4 mph0.6 kmh 29.83 in1010.2 mb 0.00 in0.0 mm 0.00 in0.0 mm 0.00 in0.0 mm
12:24 AM 79.2°F26.2°C 74.6°F23.7°C 86% Calm Calm 0.4 mph0.6 kmh 29.83 in1010.2 mb 0.00 in0.0 mm 0.00 in0.0 mm 0.00 in0.0 mm
12:30 AM 79.2°F26.2°C 75.0°F23.9°C 87% Calm Calm -- 29.83 in1010.2 mb 0.00 in0.0 mm 0.00 in0.0 mm 0.00 in0.0 mm
12:34 AM 79.2°F26.2°C 75.0°F23.9°C 87% Calm Calm -- 29.83 in1010.2 mb 0.00 in0.0 mm 0.00 in0.0 mm 0.00 in0.0 mm
12:39 AM 79.2°F26.2°C 75.0°F23.9°C 87% Calm Calm -- 29.83 in1010.2 mb 0.00 in0.0 mm 0.00 in0.0 mm 0.00 in0.0 mm
12:45 AM 79.0°F26.1°C 74.8°F23.8°C 87% Calm Calm -- 29.83 in1010.2 mb 0.00 in0.0 mm 0.00 in0.0 mm 0.00 in0.0 mm
12:49 AM 79.0°F26.1°C 74.8°F23.8°C 87% Calm Calm -- 29.82 in1009.8 mb 0.00 in0.0 mm 0.00 in0.0 mm 0.00 in0.0 mm
12:54 AM 79.0°F26.1°C 74.8°F23.8°C 87% Calm Calm -- 29.83 in1010.2 mb 0.00 in0.0 mm 0.00 in0.0 mm 0.00 in0.0 mm
01:00 AM 79.0°F26.1°C 75.2°F24.0°C 88% Calm Calm -- 29.83 in1010.2 mb 0.00 in0.0 mm 0.00 in0.0 mm 0.00 in0.0 mm
01:04 AM 79.0°F26.1°C 75.2°F24.0°C 88% Calm Calm -- 29.83 in1010.2 mb 0.00 in0.0 mm 0.00 in0.0 mm 0.00 in0.0 mm
01:11 AM 78.6°F25.9°C 75.2°F24.0°C 89% Calm Calm 0.2 mph0.3 kmh 29.83 in1010.2 mb 0.02 in0.5 mm 0.17 in4.3 mm 0.02 in0.5 mm
01:17 AM 78.4°F25.8°C 75.4°F24.1°C 90% Calm Calm -- 29.82 in1009.8 mb 0.10 in2.5 mm 0.80 in20.3 mm 0.08 in2.0 mm
01:21 AM 78.1°F25.6°C 75.0°F23.9°C 90% Calm Calm -- 29.82 in1009.8 mb 0.10 in2.5 mm 0.00 in0.0 mm 0.10 in2.5 mm
01:28 AM 77.9°F25.5°C 75.1°F23.9°C 91% Calm Calm -- 29.82 in1009.8 mb 0.10 in2.5 mm 0.00 in0.0 mm 0.10 in2.5 mm
01:32 AM 77.7°F25.4°C 75.3°F24.1°C 92% Calm Calm -- 29.82 in1009.8 mb 0.10 in2.5 mm 0.00 in0.0 mm 0.10 in2.5 mm
01:36 AM 77.7°F25.4°C 75.3°F24.1°C 92% Calm Calm -- 29.82 in1009.8 mb 0.10 in2.5 mm 0.00 in0.0 mm 0.10 in2.5 mm
01:43 AM 77.5°F25.3°C 75.1°F23.9°C 92% Calm Calm -- 29.82 in1009.8 mb 0.14 in3.6 mm 0.34 in8.6 mm 0.12 in3.0 mm
01:47 AM 77.4°F25.2°C 74.9°F23.8°C 92% Calm Calm -- 29.82 in1009.8 mb 0.14 in3.6 mm 0.00 in0.0 mm 0.14 in3.6 mm
01:53 AM 77.2°F25.1°C 75.0°F23.9°C 93% Calm Calm -- 29.82 in1009.8 mb 0.18 in4.6 mm 0.40 in10.2 mm 0.18 in4.6 mm
01:58 AM 76.8°F24.9°C 74.7°F23.7°C 93% Calm Calm 0.4 mph0.6 kmh 29.82 in1009.8 mb 0.20 in5.1 mm 0.24 in6.1 mm 0.18 in4.6 mm
02:04 AM 76.8°F24.9°C 74.7°F23.7°C 93% Calm Calm 0.4 mph0.6 kmh 29.82 in1009.8 mb 0.24 in6.1 mm 0.04 in1.0 mm 0.22 in5.6 mm
02:08 AM 76.6°F24.8°C 74.7°F23.7°C 93% Calm Calm 0.4 mph0.6 kmh 29.82 in1009.8 mb 0.26 in6.6 mm 0.30 in7.6 mm 0.26 in6.6 mm
02:13 AM 76.5°F24.7°C 74.3°F23.5°C 93% Calm Calm -- 29.82 in1009.8 mb 0.37 in9.4 mm 1.32 in33.5 mm 0.30 in7.6 mm
02:19 AM 76.1°F24.5°C 74.0°F23.3°C 93% Calm Calm -- 29.82 in1009.8 mb 0.53 in13.5 mm 1.60 in40.6 mm 0.55 in14.0 mm
02:23 AM 75.9°F24.4°C 73.8°F23.2°C 93% Calm Calm -- 29.81 in1009.5 mb 0.67 in17.0 mm 2.10 in53.3 mm 0.71 in18.0 mm
02:28 AM 75.9°F24.4°C 74.1°F23.4°C 94% Calm Calm -- 29.81 in1009.5 mb 0.71 in18.0 mm 0.48 in12.2 mm 0.81 in20.6 mm
02:34 AM 75.7°F24.3°C 73.9°F23.3°C 94% 0.7 mph NNE1.1 kmh NNE 0.7 mph1.1 kmh 29.81 in1009.5 mb 0.84 in21.3 mm 1.30 in33.0 mm 0.85 in21.6 mm
02:38 AM 75.6°F24.2°C 73.7°F23.2°C 94% Calm Calm 0.7 mph1.1 kmh 29.81 in1009.5 mb 0.94 in23.9 mm 1.50 in38.1 mm 1.00 in25.4 mm
02:45 AM 75.4°F24.1°C 73.8°F23.2°C 95% Calm Calm -- 29.82 in1009.8 mb 1.02 in25.9 mm 0.69 in17.5 mm 1.12 in28.4 mm
02:49 AM 75.4°F24.1°C 73.8°F23.2°C 95% Calm Calm -- 29.81 in1009.5 mb 1.12 in28.4 mm 1.50 in38.1 mm 1.20 in30.5 mm
02:53 AM 75.4°F24.1°C 73.8°F23.2°C 95% Calm Calm -- 29.81 in1009.5 mb 1.14 in29.0 mm 0.30 in7.6 mm 1.30 in33.0 mm
03:00 AM 75.2°F24.0°C 73.7°F23.2°C 95% Calm Calm 0.4 mph0.6 kmh 29.81 in1009.5 mb 1.14 in29.0 mm 0.00 in0.0 mm 1.34 in34.0 mm
03:04 AM 75.0°F23.9°C 73.5°F23.1°C 95% Calm Calm 0.4 mph0.6 kmh 29.81 in1009.5 mb 1.12 in28.4 mm 0.00 in0.0 mm 1.36 in34.5 mm
03:08 AM 75.0°F23.9°C 73.5°F23.1°C 95% Calm Calm -- 29.81 in1009.5 mb 1.06 in26.9 mm 0.00 in0.0 mm 1.36 in34.5 mm
03:15 AM 75.0°F23.9°C 73.5°F23.1°C 95% Calm Calm -- 29.81 in1009.5 mb 0.82 in20.8 mm 0.00 in0.0 mm 1.36 in34.5 mm
03:19 AM 75.0°F23.9°C 73.5°F23.1°C 95% Calm Calm -- 29.80 in1009.1 mb 0.65 in16.5 mm 0.00 in0.0 mm 1.36 in34.5 mm
03:26 AM 75.0°F23.9°C 73.5°F23.1°C 95% Calm Calm -- 29.80 in1009.1 mb 0.57 in14.5 mm 0.00 in0.0 mm 1.36 in34.5 mm
03:30 AM 75.0°F23.9°C 73.5°F23.1°C 95% Calm Calm -- 29.80 in1009.1 mb 0.55 in14.0 mm 0.00 in0.0 mm 1.38 in35.1 mm
03:34 AM 74.8°F23.8°C 73.6°F23.1°C 96% Calm Calm -- 29.80 in1009.1 mb 0.39 in9.9 mm 0.00 in0.0 mm 1.38 in35.1 mm
03:41 AM 74.8°F23.8°C 73.6°F23.1°C 96% Calm Calm -- 29.80 in1009.1 mb 0.29 in7.4 mm 0.00 in0.0 mm 1.38 in35.1 mm
03:45 AM 74.8°F23.8°C 73.6°F23.1°C 96% Calm Calm -- 29.80 in1009.1 mb 0.24 in6.1 mm 0.00 in0.0 mm 1.41 in35.8 mm
03:49 AM 74.8°F23.8°C 73.6°F23.1°C 96% Calm Calm -- 29.80 in1009.1 mb 0.20 in5.1 mm 0.00 in0.0 mm 1.45 in36.8 mm
03:56 AM 74.8°F23.8°C 73.6°F23.1°C 96% Calm Calm -- 29.80 in1009.1 mb 0.29 in7.4 mm 0.77 in19.6 mm 1.55 in39.4 mm
04:00 AM 74.8°F23.8°C 73.6°F23.1°C 96% 0.9 mph E1.4 kmh E 0.9 mph1.4 kmh 29.80 in1009.1 mb 0.41 in10.4 mm 0.13 in3.3 mm 1.69 in42.9 mm
04:06 AM 74.5°F23.6°C 73.6°F23.1°C 97% Calm Calm 0.9 mph1.4 kmh 29.80 in1009.1 mb 0.57 in14.5 mm 1.60 in40.6 mm 1.87 in47.5 mm
04:11 AM 74.7°F23.7°C 73.7°F23.2°C 97% Calm Calm -- 29.80 in1009.1 mb 0.59 in15.0 mm 0.24 in6.1 mm 1.96 in49.8 mm
04:17 AM 74.5°F23.6°C 73.6°F23.1°C 97% Calm Calm -- 29.81 in1009.5 mb 0.59 in15.0 mm 0.00 in0.0 mm 1.96 in49.8 mm
04:23 AM 74.5°F23.6°C 73.6°F23.1°C 97% Calm Calm -- 29.81 in1009.5 mb 0.61 in15.5 mm 0.20 in5.1 mm 1.98 in50.3 mm
04:30 AM 74.5°F23.6°C 73.6°F23.1°C 97% Calm Calm -- 29.81 in1009.5 mb 0.65 in16.5 mm 0.34 in8.6 mm 2.04 in51.8 mm
04:34 AM 74.5°F23.6°C 73.6°F23.1°C 97% Calm Calm -- 29.81 in1009.5 mb 0.75 in19.1 mm 1.50 in38.1 mm 2.08 in52.8 mm
04:38 AM 74.5°F23.6°C 73.6°F23.1°C 97% Calm Calm -- 29.82 in1009.8 mb 0.80 in20.3 mm 0.75 in19.1 mm 2.16 in54.9 mm
04:45 AM 74.5°F23.6°C 73.6°F23.1°C 97% 0.7 mph 1.1 kmh 0.7 mph1.1 kmh 29.83 in1010.2 mb 0.94 in23.9 mm 1.20 in30.5 mm 2.28 in57.9 mm
04:49 AM 74.5°F23.6°C 73.6°F23.1°C 97% Calm Calm 0.7 mph1.1 kmh 29.83 in1010.2 mb 1.02 in25.9 mm 1.20 in30.5 mm 2.42 in61.5 mm
04:56 AM 74.5°F23.6°C 73.6°F23.1°C 97% Calm Calm -- 29.81 in1009.5 mb 1.08 in27.4 mm 0.51 in13.0 mm 2.71 in68.8 mm
05:00 AM 74.5°F23.6°C 73.6°F23.1°C 97% Calm Calm -- 29.82 in1009.8 mb 0.98 in24.9 mm 0.00 in0.0 mm 2.81 in71.4 mm
05:04 AM 74.5°F23.6°C 73.6°F23.1°C 97% Calm Calm -- 29.82 in1009.8 mb 1.02 in25.9 mm 0.60 in15.2 mm 2.87 in72.9 mm
05:11 AM 74.5°F23.6°C 73.6°F23.1°C 97% Calm Calm -- 29.82 in1009.8 mb 0.98 in24.9 mm 0.00 in0.0 mm 2.91 in73.9 mm
05:15 AM 74.5°F23.6°C 73.6°F23.1°C 97% Calm Calm -- 29.83 in1010.2 mb 1.00 in25.4 mm 0.30 in7.6 mm 2.93 in74.4 mm
05:21 AM 74.3°F23.5°C 73.4°F23.0°C 97% Calm Calm -- 29.83 in1010.2 mb 1.00 in25.4 mm 0.00 in0.0 mm 2.98 in75.7 mm
05:25 AM 74.3°F23.5°C 73.4°F23.0°C 97% Calm Calm -- 29.83 in1010.2 mb 0.98 in24.9 mm 0.00 in0.0 mm 2.98 in75.7 mm
05:32 AM 74.3°F23.5°C 73.4°F23.0°C 97% Calm Calm -- 29.83 in1010.2 mb 0.88 in22.4 mm 0.00 in0.0 mm 3.00 in76.2 mm
05:38 AM 74.3°F23.5°C 73.4°F23.0°C 97% Calm Calm -- 29.83 in1010.2 mb 0.82 in20.8 mm 0.00 in0.0 mm 3.04 in77.2 mm
05:45 AM 74.3°F23.5°C 73.4°F23.0°C 97% Calm Calm -- 29.83 in1010.2 mb 0.71 in18.0 mm 0.00 in0.0 mm 3.06 in77.7 mm
05:49 AM 74.1°F23.4°C 73.2°F22.9°C 97% Calm Calm -- 29.84 in1010.5 mb 0.55 in14.0 mm 0.00 in0.0 mm 3.06 in77.7 mm
05:56 AM 74.1°F23.4°C 73.2°F22.9°C 97% Calm Calm -- 29.84 in1010.5 mb 0.24 in6.1 mm 0.00 in0.0 mm 3.06 in77.7 mm
06:00 AM 74.1°F23.4°C 73.2°F22.9°C 97% Calm Calm -- 29.84 in1010.5 mb 0.20 in5.1 mm 0.00 in0.0 mm 3.06 in77.7 mm
06:06 AM 74.3°F23.5°C 73.4°F23.0°C 97% Calm Calm -- 29.85 in1010.8 mb 0.16 in4.1 mm 0.00 in0.0 mm 3.08 in78.2 mm
06:10 AM 74.3°F23.5°C 73.4°F23.0°C 97% Calm Calm -- 29.86 in1011.2 mb 0.16 in4.1 mm 0.00 in0.0 mm 3.08 in78.2 mm
06:15 AM 74.3°F23.5°C 73.4°F23.0°C 97% Calm Calm -- 29.86 in1011.2 mb 0.12 in3.0 mm 0.00 in0.0 mm 3.10 in78.7 mm
06:21 AM 74.1°F23.4°C 73.2°F22.9°C 97% Calm Calm -- 29.86 in1011.2 mb 0.12 in3.0 mm 0.00 in0.0 mm 3.10 in78.7 mm
06:25 AM 74.3°F23.5°C 73.4°F23.0°C 97% Calm Calm -- 29.86 in1011.2 mb 0.10 in2.5 mm 0.00 in0.0 mm 3.10 in78.7 mm
06:30 AM 74.1°F23.4°C 73.2°F22.9°C 97% Calm Calm -- 29.86 in1011.2 mb 0.10 in2.5 mm 0.00 in0.0 mm 3.10 in78.7 mm
06:36 AM 74.1°F23.4°C 73.2°F22.9°C 97% Calm Calm -- 29.86 in1011.2 mb 0.06 in1.5 mm 0.00 in0.0 mm 3.10 in78.7 mm
06:40 AM 74.1°F23.4°C 73.2°F22.9°C 97% Calm Calm -- 29.86 in1011.2 mb 0.06 in1.5 mm 0.00 in0.0 mm 3.10 in78.7 mm
06:47 AM 74.1°F23.4°C 73.2°F22.9°C 97% Calm Calm -- 29.86 in1011.2 mb 0.04 in1.0 mm 0.00 in0.0 mm 3.10 in78.7 mm
06:51 AM 74.3°F23.5°C 73.4°F23.0°C 97% Calm Calm -- 29.86 in1011.2 mb 0.04 in1.0 mm 0.00 in0.0 mm 3.10 in78.7 mm
06:58 AM 74.1°F23.4°C 73.2°F22.9°C 97% Calm Calm -- 29.87 in1011.5 mb 0.04 in1.0 mm 0.00 in0.0 mm 3.10 in78.7 mm
07:02 AM 74.3°F23.5°C 73.4°F23.0°C 97% Calm Calm -- 29.88 in1011.9 mb 0.02 in0.5 mm 0.00 in0.0 mm 3.10 in78.7 mm
07:06 AM 74.3°F23.5°C 73.4°F23.0°C 97% Calm Calm -- 29.88 in1011.9 mb 0.00 in0.0 mm 0.00 in0.0 mm 3.10 in78.7 mm
07:13 AM 74.3°F23.5°C 73.4°F23.0°C 97% Calm Calm -- 29.88 in1011.9 mb 0.00 in0.0 mm 0.00 in0.0 mm 3.10 in78.7 mm
07:17 AM 74.3°F23.5°C 73.4°F23.0°C 97% Calm Calm -- 29.88 in1011.9 mb 0.00 in0.0 mm 0.00 in0.0 mm 3.10 in78.7 mm
07:21 AM 74.3°F23.5°C 73.4°F23.0°C 97% Calm Calm -- 29.88 in1011.9 mb 0.00 in0.0 mm 0.00 in0.0 mm 3.10 in78.7 mm
07:28 AM 74.3°F23.5°C 73.7°F23.2°C 98% Calm Calm -- 29.89 in1012.2 mb 0.00 in0.0 mm 0.00 in0.0 mm 3.10 in78.7 mm
07:32 AM 74.3°F23.5°C 73.7°F23.2°C 98% Calm Calm -- 29.89 in1012.2 mb 0.00 in0.0 mm 0.00 in0.0 mm 3.10 in78.7 mm
07:38 AM 74.3°F23.5°C 73.7°F23.2°C 98% Calm Calm -- 29.89 in1012.2 mb 0.00 in0.0 mm 0.00 in0.0 mm 3.10 in78.7 mm
07:43 AM 74.1°F23.4°C 73.5°F23.1°C 98% Calm Calm -- 29.89 in1012.2 mb 0.00 in0.0 mm 0.00 in0.0 mm 3.10 in78.7 mm
07:47 AM 74.1°F23.4°C 73.5°F23.1°C 98% Calm Calm -- 29.89 in1012.2 mb 0.00 in0.0 mm 0.00 in0.0 mm 3.10 in78.7 mm
07:53 AM 74.1°F23.4°C 73.7°F23.2°C 98% Calm Calm -- 29.89 in1012.2 mb 0.00 in0.0 mm 0.00 in0.0 mm 3.10 in78.7 mm
07:58 AM 74.1°F23.4°C 73.5°F23.1°C 98% Calm Calm -- 29.89 in1012.2 mb 0.00 in0.0 mm 0.00 in0.0 mm 3.10 in78.7 mm
08:02 AM 74.3°F23.5°C 73.7°F23.2°C 98% Calm Calm -- 29.90 in1012.5 mb 0.00 in0.0 mm 0.00 in0.0 mm 3.10 in78.7 mm
08:08 AM 74.3°F23.5°C 73.7°F23.2°C 98% Calm Calm -- 29.90 in1012.5 mb 0.00 in0.0 mm 0.00 in0.0 mm 3.10 in78.7 mm
08:13 AM 74.3°F23.5°C 73.7°F23.2°C 98% Calm Calm -- 29.89 in1012.2 mb 0.00 in0.0 mm 0.00 in0.0 mm 3.10 in78.7 mm
08:19 AM 74.5°F23.6°C 73.9°F23.3°C 98% Calm Calm -- 29.90 in1012.5 mb 0.00 in0.0 mm 0.00 in0.0 mm 3.10 in78.7 mm
08:25 AM 74.3°F23.5°C 73.7°F23.2°C 98% Calm Calm -- 29.89 in1012.2 mb 0.00 in0.0 mm 0.00 in0.0 mm 3.10 in78.7 mm
08:30 AM 74.3°F23.5°C 73.7°F23.2°C 98% Calm Calm -- 29.89 in1012.2 mb 0.00 in0.0 mm 0.00 in0.0 mm 3.10 in78.7 mm
08:34 AM 74.3°F23.5°C 73.7°F23.2°C 98% 0.2 mph ESE0.3 kmh ESE 0.2 mph0.3 kmh 29.89 in1012.2 mb 0.00 in0.0 mm 0.00 in0.0 mm 3.10 in78.7 mm
08:40 AM 74.5°F23.6°C 73.9°F23.3°C 98% Calm Calm 0.2 mph0.3 kmh 29.89 in1012.2 mb 0.00 in0.0 mm 0.00 in0.0 mm 3.10 in78.7 mm
08:47 AM 74.5°F23.6°C 73.9°F23.3°C 98% Calm Calm -- 29.89 in1012.2 mb 0.00 in0.0 mm 0.00 in0.0 mm 3.10 in78.7 mm
08:53 AM 74.8°F23.8°C 74.2°F23.4°C 98% Calm Calm -- 29.89 in1012.2 mb 0.00 in0.0 mm 0.00 in0.0 mm 3.10 in78.7 mm
08:58 AM 74.8°F23.8°C 74.2°F23.4°C 98% Calm Calm -- 29.89 in1012.2 mb 0.00 in0.0 mm 0.00 in0.0 mm 3.10 in78.7 mm
09:02 AM 74.8°F23.8°C 74.2°F23.4°C 98% Calm Calm -- 29.89 in1012.2 mb 0.00 in0.0 mm 0.00 in0.0 mm 3.10 in78.7 mm
09:08 AM 74.8°F23.8°C 74.2°F23.4°C 98% Calm Calm 0.7 mph1.1 kmh 29.88 in1011.9 mb 0.00 in0.0 mm 0.00 in0.0 mm 3.10 in78.7 mm
09:13 AM 75.0°F23.9°C 74.4°F23.6°C 98% Calm Calm 0.7 mph1.1 kmh 29.89 in1012.2 mb 0.00 in0.0 mm 0.00 in0.0 mm 3.10 in78.7 mm
09:17 AM 75.0°F23.9°C 74.4°F23.6°C 98% Calm Calm -- 29.88 in1011.9 mb 0.00 in0.0 mm 0.00 in0.0 mm 3.10 in78.7 mm
09:23 AM 75.6°F24.2°C 74.9°F23.8°C 98% Calm Calm -- 29.88 in1011.9 mb 0.00 in0.0 mm 0.00 in0.0 mm 3.10 in78.7 mm
09:28 AM 75.9°F24.4°C 75.3°F24.1°C 98% Calm Calm -- 29.88 in1011.9 mb 0.00 in0.0 mm 0.00 in0.0 mm 3.10 in78.7 mm
09:32 AM 76.3°F24.6°C 75.7°F24.3°C 98% Calm Calm -- 29.88 in1011.9 mb 0.00 in0.0 mm 0.00 in0.0 mm 3.10 in78.7 mm
09:38 AM 76.8°F24.9°C 76.2°F24.6°C 98% Calm Calm -- 29.88 in1011.9 mb 0.00 in0.0 mm 0.00 in0.0 mm 3.10 in78.7 mm
09:42 AM 77.2°F25.1°C 76.3°F24.6°C 97% Calm Calm -- 29.88 in1011.9 mb 0.00 in0.0 mm 0.00 in0.0 mm 3.10 in78.7 mm
09:49 AM 77.5°F25.3°C 76.6°F24.8°C 97% Calm Calm -- 29.89 in1012.2 mb 0.00 in0.0 mm 0.00 in0.0 mm 3.10 in78.7 mm
09:53 AM 77.9°F25.5°C 77.0°F25.0°C 97% Calm Calm -- 29.89 in1012.2 mb 0.00 in0.0 mm 0.00 in0.0 mm 3.10 in78.7 mm
09:58 AM 78.1°F25.6°C 76.9°F24.9°C 96% Calm Calm -- 29.89 in1012.2 mb 0.00 in0.0 mm 0.00 in0.0 mm 3.10 in78.7 mm
10:04 AM 78.8°F26.0°C 77.6°F25.3°C 96% Calm Calm -- 29.89 in1012.2 mb 0.00 in0.0 mm 0.00 in0.0 mm 3.10 in78.7 mm
10:08 AM 79.2°F26.2°C 77.6°F25.3°C 95% Calm Calm -- 29.89 in1012.2 mb 0.00 in0.0 mm 0.00 in0.0 mm 3.10 in78.7 mm
10:12 AM 79.7°F26.5°C 77.8°F25.4°C 94% Calm Calm -- 29.89 in1012.2 mb 0.00 in0.0 mm 0.00 in0.0 mm 3.10 in78.7 mm
10:19 AM 79.9°F26.6°C 77.6°F25.3°C 93% Calm Calm -- 29.88 in1011.9 mb 0.00 in0.0 mm 0.00 in0.0 mm 3.10 in78.7 mm
10:23 AM 80.2°F26.8°C 77.7°F25.4°C 92% Calm Calm -- 29.88 in1011.9 mb 0.00 in0.0 mm 0.00 in0.0 mm 3.10 in78.7 mm
10:27 AM 80.6°F27.0°C 77.8°F25.4°C 92% Calm Calm -- 29.88 in1011.9 mb 0.00 in0.0 mm 0.00 in0.0 mm 3.10 in78.7 mm
10:34 AM 81.0°F27.2°C 78.0°F25.6°C 91% Calm Calm -- 29.88 in1011.9 mb 0.00 in0.0 mm 0.00 in0.0 mm 3.10 in78.7 mm
10:38 AM 81.3°F27.4°C 78.1°F25.6°C 90% Calm Calm -- 29.88 in1011.9 mb 0.00 in0.0 mm 0.00 in0.0 mm 3.10 in78.7 mm
10:43 AM 81.7°F27.6°C 78.4°F25.8°C 90% Calm Calm -- 29.88 in1011.9 mb 0.00 in0.0 mm 0.00 in0.0 mm 3.10 in78.7 mm
10:49 AM 82.0°F27.8°C 77.8°F25.4°C 87% Calm Calm -- 29.88 in1011.9 mb 0.00 in0.0 mm 0.00 in0.0 mm 3.10 in78.7 mm
10:53 AM 82.0°F27.8°C 77.4°F25.2°C 86% Calm Calm -- 29.88 in1011.9 mb 0.00 in0.0 mm 0.00 in0.0 mm 3.10 in78.7 mm
11:00 AM 82.2°F27.9°C 77.6°F25.3°C 86% Calm Calm -- 29.87 in1011.5 mb 0.00 in0.0 mm 0.00 in0.0 mm 3.10 in78.7 mm
11:04 AM 82.4°F28.0°C 77.1°F25.1°C 84% Calm Calm -- 29.87 in1011.5 mb 0.00 in0.0 mm 0.00 in0.0 mm 3.10 in78.7 mm
11:10 AM 82.9°F28.3°C 77.6°F25.3°C 84% Calm Calm -- 29.87 in1011.5 mb 0.00 in0.0 mm 0.00 in0.0 mm 3.10 in78.7 mm
11:17 AM 83.1°F28.4°C 76.7°F24.8°C 81% Calm Calm -- 29.87 in1011.5 mb 0.00 in0.0 mm 0.00 in0.0 mm 3.10 in78.7 mm
11:23 AM 83.3°F28.5°C 76.9°F24.9°C 81% Calm Calm -- 29.87 in1011.5 mb 0.00 in0.0 mm 0.00 in0.0 mm 3.10 in78.7 mm
11:27 AM 83.8°F28.8°C 77.7°F25.4°C 82% Calm Calm -- 29.87 in1011.5 mb 0.00 in0.0 mm 0.00 in0.0 mm 3.10 in78.7 mm
11:32 AM 84.0°F28.9°C 77.2°F25.1°C 80% Calm Calm -- 29.87 in1011.5 mb 0.00 in0.0 mm 0.00 in0.0 mm 3.10 in78.7 mm
11:38 AM 84.4°F29.1°C 77.5°F25.3°C 80% Calm Calm -- 29.87 in1011.5 mb 0.00 in0.0 mm 0.00 in0.0 mm 3.10 in78.7 mm
11:42 AM 84.6°F29.2°C 78.1°F25.6°C 80% Calm Calm -- 29.86 in1011.2 mb 0.00 in0.0 mm 0.00 in0.0 mm 3.10 in78.7 mm
11:47 AM 84.6°F29.2°C 77.7°F25.4°C 79% Calm Calm -- 29.86 in1011.2 mb 0.00 in0.0 mm 0.00 in0.0 mm 3.10 in78.7 mm
11:53 AM 84.4°F29.1°C 77.1°F25.1°C 79% Calm Calm -- 29.86 in1011.2 mb 0.00 in0.0 mm 0.00 in0.0 mm 3.10 in78.7 mm
11:57 AM 84.4°F29.1°C 77.1°F25.1°C 80% Calm Calm -- 29.86 in1011.2 mb 0.00 in0.0 mm 0.00 in0.0 mm 3.10 in78.7 mm
12:02 PM 84.6°F29.2°C 77.7°F25.4°C 80% Calm Calm -- 29.86 in1011.2 mb 0.00 in0.0 mm 0.00 in0.0 mm 3.10 in78.7 mm
12:08 PM 84.7°F29.3°C 77.5°F25.3°C 79% Calm Calm -- 29.85 in1010.8 mb 0.00 in0.0 mm 0.00 in0.0 mm 3.10 in78.7 mm
12:15 PM 85.5°F29.7°C 78.2°F25.7°C 79% 0.4 mph NE0.6 kmh NE 0.4 mph0.6 kmh 29.85 in1010.8 mb 0.00 in0.0 mm 0.00 in0.0 mm 3.10 in78.7 mm
12:19 PM 85.8°F29.9°C 78.6°F25.9°C 79% Calm Calm 0.4 mph0.6 kmh 29.85 in1010.8 mb 0.00 in0.0 mm 0.00 in0.0 mm 3.10 in78.7 mm
12:23 PM 85.8°F29.9°C 78.2°F25.7°C 78% 0.4 mph S0.6 kmh S 0.4 mph0.6 kmh 29.85 in1010.8 mb 0.00 in0.0 mm 0.00 in0.0 mm 3.10 in78.7 mm
12:30 PM 85.8°F29.9°C 78.2°F25.7°C 78% Calm Calm 0.4 mph0.6 kmh 29.85 in1010.8 mb 0.00 in0.0 mm 0.00 in0.0 mm 3.10 in78.7 mm
12:34 PM 85.8°F29.9°C 78.2°F25.7°C 78% 0.2 mph SSE0.3 kmh SSE 0.2 mph0.3 kmh 29.84 in1010.5 mb 0.00 in0.0 mm 0.00 in0.0 mm 3.10 in78.7 mm
12:40 PM 86.5°F30.3°C 78.5°F25.8°C 77% 0.4 mph SSE0.6 kmh SSE 0.4 mph0.6 kmh 29.84 in1010.5 mb 0.00 in0.0 mm 0.00 in0.0 mm 3.10 in78.7 mm
12:45 PM 86.7°F30.4°C 79.1°F26.2°C 78% Calm Calm 0.4 mph0.6 kmh 29.83 in1010.2 mb 0.00 in0.0 mm 0.00 in0.0 mm 3.10 in78.7 mm
12:51 PM 87.1°F30.6°C 77.8°F25.4°C 74% 0.9 mph ESE1.4 kmh ESE 0.9 mph1.4 kmh 29.83 in1010.2 mb 0.00 in0.0 mm 0.00 in0.0 mm 3.10 in78.7 mm
12:55 PM 87.3°F30.7°C 78.0°F25.6°C 74% Calm Calm 0.9 mph1.4 kmh 29.83 in1010.2 mb 0.00 in0.0 mm 0.00 in0.0 mm 3.10 in78.7 mm
01:04 PM 87.6°F30.9°C 78.7°F25.9°C 75% Calm Calm -- 29.83 in1010.2 mb 0.00 in0.0 mm 0.00 in0.0 mm 3.10 in78.7 mm
01:08 PM 88.0°F31.1°C 77.8°F25.4°C 72% 0.7 mph SW1.1 kmh SW 0.7 mph1.1 kmh 29.83 in1010.2 mb 0.00 in0.0 mm 0.00 in0.0 mm 3.10 in78.7 mm
01:12 PM 88.3°F31.3°C 78.6°F25.9°C 73% Calm Calm 0.7 mph1.1 kmh 29.82 in1009.8 mb 0.00 in0.0 mm 0.00 in0.0 mm 3.10 in78.7 mm
01:19 PM 88.2°F31.2°C 78.0°F25.6°C 72% Calm Calm -- 29.82 in1009.8 mb 0.00 in0.0 mm 0.00 in0.0 mm 3.10 in78.7 mm
01:23 PM 88.3°F31.3°C 78.2°F25.7°C 72% Calm Calm -- 29.82 in1009.8 mb 0.00 in0.0 mm 0.00 in0.0 mm 3.10 in78.7 mm
01:30 PM 88.2°F31.2°C 78.0°F25.6°C 72% Calm Calm -- 29.81 in1009.5 mb 0.00 in0.0 mm 0.00 in0.0 mm 3.10 in78.7 mm
01:34 PM 88.3°F31.3°C 78.6°F25.9°C 73% Calm Calm -- 29.81 in1009.5 mb 0.00 in0.0 mm 0.00 in0.0 mm 3.10 in78.7 mm
01:38 PM 88.3°F31.3°C 78.6°F25.9°C 73% Calm Calm 0.4 mph0.6 kmh 29.81 in1009.5 mb 0.00 in0.0 mm 0.00 in0.0 mm 3.10 in78.7 mm
01:45 PM 88.3°F31.3°C 78.2°F25.7°C 72% Calm Calm 0.4 mph0.6 kmh 29.81 in1009.5 mb 0.00 in0.0 mm 0.00 in0.0 mm 3.10 in78.7 mm
01:49 PM 88.0°F31.1°C 78.2°F25.7°C 73% Calm Calm -- 29.80 in1009.1 mb 0.00 in0.0 mm 0.00 in0.0 mm 3.10 in78.7 mm
01:57 PM 88.3°F31.3°C 78.2°F25.7°C 72% Calm Calm 2.0 mph3.2 kmh 29.79 in1008.8 mb 0.00 in0.0 mm 0.00 in0.0 mm 3.10 in78.7 mm
02:02 PM 88.5°F31.4°C 78.3°F25.7°C 72% Calm Calm 2.0 mph3.2 kmh 29.79 in1008.8 mb 0.00 in0.0 mm 0.00 in0.0 mm 3.10 in78.7 mm
02:08 PM 88.9°F31.6°C 78.7°F25.9°C 72% Calm Calm 0.7 mph1.1 kmh 29.79 in1008.8 mb 0.00 in0.0 mm 0.00 in0.0 mm 3.10 in78.7 mm
02:12 PM 88.9°F31.6°C 78.3°F25.7°C 71% Calm Calm 0.7 mph1.1 kmh 29.79 in1008.8 mb 0.00 in0.0 mm 0.00 in0.0 mm 3.10 in78.7 mm
02:19 PM 89.2°F31.8°C 78.5°F25.8°C 70% Calm Calm -- 29.78 in1008.5 mb 0.00 in0.0 mm 0.00 in0.0 mm 3.10 in78.7 mm
02:23 PM 89.2°F31.8°C 78.7°F25.9°C 71% Calm Calm -- 29.78 in1008.5 mb 0.00 in0.0 mm 0.00 in0.0 mm 3.10 in78.7 mm
02:27 PM 89.4°F31.9°C 78.8°F26.0°C 71% Calm Calm -- 29.77 in1008.1 mb 0.00 in0.0 mm 0.00 in0.0 mm 3.10 in78.7 mm
02:34 PM 89.8°F32.1°C 78.6°F25.9°C 70% 1.1 mph S1.8 kmh S 1.1 mph1.8 kmh 29.77 in1008.1 mb 0.00 in0.0 mm 0.00 in0.0 mm 3.10 in78.7 mm
02:38 PM 89.8°F32.1°C 78.8°F26.0°C 70% Calm Calm 1.1 mph1.8 kmh 29.77 in1008.1 mb 0.00 in0.0 mm 0.00 in0.0 mm 3.10 in78.7 mm
02:44 PM 90.1°F32.3°C 78.6°F25.9°C 69% Calm Calm -- 29.76 in1007.8 mb 0.00 in0.0 mm 0.00 in0.0 mm 3.10 in78.7 mm
02:49 PM 90.3°F32.4°C 78.3°F25.7°C 68% Calm Calm -- 29.76 in1007.8 mb 0.00 in0.0 mm 0.00 in0.0 mm 3.10 in78.7 mm
02:55 PM 90.5°F32.5°C 78.5°F25.8°C 68% Calm Calm -- 29.76 in1007.8 mb 0.00 in0.0 mm 0.00 in0.0 mm 3.10 in78.7 mm
02:59 PM 90.1°F32.3°C 77.7°F25.4°C 67% Calm Calm 1.3 mph2.1 kmh 29.76 in1007.8 mb 0.00 in0.0 mm 0.00 in0.0 mm 3.10 in78.7 mm
03:06 PM 90.3°F32.4°C 77.9°F25.5°C 67% Calm Calm 1.3 mph2.1 kmh 29.76 in1007.8 mb 0.00 in0.0 mm 0.00 in0.0 mm 3.10 in78.7 mm
03:10 PM 90.3°F32.4°C 77.9°F25.5°C 67% Calm Calm 0.2 mph0.3 kmh 29.75 in1007.5 mb 0.00 in0.0 mm 0.00 in0.0 mm 3.10 in78.7 mm
03:14 PM 90.3°F32.4°C 78.3°F25.7°C 68% Calm Calm -- 29.76 in1007.8 mb 0.00 in0.0 mm 0.00 in0.0 mm 3.10 in78.7 mm
03:21 PM 90.7°F32.6°C 77.7°F25.4°C 66% Calm Calm -- 29.75 in1007.5 mb 0.00 in0.0 mm 0.00 in0.0 mm 3.10 in78.7 mm
03:25 PM 91.0°F32.8°C 78.5°F25.8°C 67% Calm Calm -- 29.75 in1007.5 mb 0.00 in0.0 mm 0.00 in0.0 mm 3.10 in78.7 mm
03:29 PM 91.0°F32.8°C 78.0°F25.6°C 66% Calm Calm -- 29.74 in1007.1 mb 0.00 in0.0 mm 0.00 in0.0 mm 3.10 in78.7 mm
03:36 PM 91.4°F33.0°C 78.8°F26.0°C 67% Calm Calm -- 29.74 in1007.1 mb 0.00 in0.0 mm 0.00 in0.0 mm 3.10 in78.7 mm
03:40 PM 91.2°F32.9°C 77.7°F25.4°C 65% Calm Calm -- 29.74 in1007.1 mb 0.00 in0.0 mm 0.00 in0.0 mm 3.10 in78.7 mm
03:47 PM 91.6°F33.1°C 78.5°F25.8°C 66% Calm Calm -- 29.74 in1007.1 mb 0.00 in0.0 mm 0.00 in0.0 mm 3.10 in78.7 mm
03:51 PM 91.6°F33.1°C 77.1°F25.1°C 63% Calm Calm -- 29.73 in1006.8 mb 0.00 in0.0 mm 0.00 in0.0 mm 3.10 in78.7 mm
03:55 PM 91.4°F33.0°C 77.4°F25.2°C 64% Calm Calm -- 29.73 in1006.8 mb 0.00 in0.0 mm 0.00 in0.0 mm 3.10 in78.7 mm
04:02 PM 91.6°F33.1°C 77.1°F25.1°C 63% Calm Calm 0.9 mph1.4 kmh 29.73 in1006.8 mb 0.00 in0.0 mm 0.00 in0.0 mm 3.10 in78.7 mm
04:06 PM 91.6°F33.1°C 76.7°F24.8°C 62% Calm Calm 0.9 mph1.4 kmh 29.73 in1006.8 mb 0.00 in0.0 mm 0.00 in0.0 mm 3.10 in78.7 mm
04:10 PM 91.8°F33.2°C 77.8°F25.4°C 64% Calm Calm -- 29.73 in1006.8 mb 0.00 in0.0 mm 0.00 in0.0 mm 3.10 in78.7 mm
04:17 PM 91.6°F33.1°C 77.1°F25.1°C 63% Calm Calm -- 29.73 in1006.8 mb 0.00 in0.0 mm 0.00 in0.0 mm 3.10 in78.7 mm
04:21 PM 91.4°F33.0°C 77.4°F25.2°C 64% Calm Calm -- 29.73 in1006.8 mb 0.00 in0.0 mm 0.00 in0.0 mm 3.10 in78.7 mm
04:27 PM 91.4°F33.0°C 78.4°F25.8°C 66% Calm Calm -- 29.72 in1006.4 mb 0.00 in0.0 mm 0.00 in0.0 mm 3.10 in78.7 mm
04:31 PM 91.6°F33.1°C 78.1°F25.6°C 65% Calm Calm -- 29.72 in1006.4 mb 0.00 in0.0 mm 0.00 in0.0 mm 3.10 in78.7 mm
04:36 PM 91.4°F33.0°C 77.4°F25.2°C 64% Calm Calm -- 29.73 in1006.8 mb 0.00 in0.0 mm 0.00 in0.0 mm 3.10 in78.7 mm
04:42 PM 90.9°F32.7°C 76.9°F24.9°C 64% Calm Calm -- 29.73 in1006.8 mb 0.00 in0.0 mm 0.00 in0.0 mm 3.10 in78.7 mm
04:47 PM 90.5°F32.5°C 77.1°F25.1°C 65% Calm Calm -- 29.73 in1006.8 mb 0.00 in0.0 mm 0.00 in0.0 mm 3.10 in78.7 mm
04:53 PM 90.3°F32.4°C 77.4°F25.2°C 66% Calm Calm -- 29.73 in1006.8 mb 0.00 in0.0 mm 0.00 in0.0 mm 3.10 in78.7 mm
04:57 PM 90.3°F32.4°C 77.4°F25.2°C 66% Calm Calm -- 29.72 in1006.4 mb 0.00 in0.0 mm 0.00 in0.0 mm 3.10 in78.7 mm
05:04 PM 90.3°F32.4°C 77.4°F25.2°C 66% Calm Calm -- 29.72 in1006.4 mb 0.00 in0.0 mm 0.00 in0.0 mm 3.10 in78.7 mm
05:08 PM 90.3°F32.4°C 77.4°F25.2°C 66% Calm Calm -- 29.72 in1006.4 mb 0.00 in0.0 mm 0.00 in0.0 mm 3.10 in78.7 mm
05:14 PM 90.7°F32.6°C 77.7°F25.4°C 66% Calm Calm -- 29.72 in1006.4 mb 0.00 in0.0 mm 0.00 in0.0 mm 3.10 in78.7 mm
05:19 PM 90.9°F32.7°C 78.8°F26.0°C 68% Calm Calm -- 29.72 in1006.4 mb 0.00 in0.0 mm 0.00 in0.0 mm 3.10 in78.7 mm
05:25 PM 90.7°F32.6°C 78.2°F25.7°C 67% Calm Calm -- 29.72 in1006.4 mb 0.00 in0.0 mm 0.00 in0.0 mm 3.10 in78.7 mm
05:29 PM 90.5°F32.5°C 78.0°F25.6°C 67% Calm Calm -- 29.72 in1006.4 mb 0.00 in0.0 mm 0.00 in0.0 mm 3.10 in78.7 mm
05:34 PM 90.3°F32.4°C 78.3°F25.7°C 68% Calm Calm -- 29.72 in1006.4 mb 0.00 in0.0 mm 0.00 in0.0 mm 3.10 in78.7 mm
05:40 PM 90.3°F32.4°C 78.3°F25.7°C 68% Calm Calm -- 29.72 in1006.4 mb 0.00 in0.0 mm 0.00 in0.0 mm 3.10 in78.7 mm
05:44 PM 90.1°F32.3°C 77.7°F25.4°C 67% Calm Calm -- 29.73 in1006.8 mb 0.00 in0.0 mm 0.00 in0.0 mm 3.10 in78.7 mm
05:49 PM 90.1°F32.3°C 77.7°F25.4°C 67% Calm Calm -- 29.73 in1006.8 mb 0.00 in0.0 mm 0.00 in0.0 mm 3.10 in78.7 mm
05:55 PM 90.0°F32.2°C 78.0°F25.6°C 68% Calm Calm -- 29.73 in1006.8 mb 0.00 in0.0 mm 0.00 in0.0 mm 3.10 in78.7 mm
05:59 PM 89.8°F32.1°C 77.4°F25.2°C 67% Calm Calm 0.4 mph0.6 kmh 29.73 in1006.8 mb 0.00 in0.0 mm 0.00 in0.0 mm 3.10 in78.7 mm
06:06 PM 89.4°F31.9°C 77.5°F25.3°C 68% Calm Calm 0.4 mph0.6 kmh 29.74 in1007.1 mb 0.00 in0.0 mm 0.00 in0.0 mm 3.10 in78.7 mm
06:10 PM 89.4°F31.9°C 77.5°F25.3°C 68% Calm Calm -- 29.74 in1007.1 mb 0.00 in0.0 mm 0.00 in0.0 mm 3.10 in78.7 mm
06:16 PM 88.9°F31.6°C 77.0°F25.0°C 68% Calm Calm -- 29.74 in1007.1 mb 0.00 in0.0 mm 0.00 in0.0 mm 3.10 in78.7 mm
06:21 PM 88.7°F31.5°C 76.8°F24.9°C 68% Calm Calm -- 29.74 in1007.1 mb 0.00 in0.0 mm 0.00 in0.0 mm 3.10 in78.7 mm
06:25 PM 88.5°F31.4°C 77.1°F25.1°C 69% Calm Calm 0.9 mph1.4 kmh 29.74 in1007.1 mb 0.00 in0.0 mm 0.00 in0.0 mm 3.10 in78.7 mm
06:31 PM 88.3°F31.3°C 76.9°F24.9°C 69% Calm Calm 0.9 mph1.4 kmh 29.74 in1007.1 mb 0.00 in0.0 mm 0.00 in0.0 mm 3.10 in78.7 mm
06:36 PM 88.2°F31.2°C 77.2°F25.1°C 70% Calm Calm -- 29.74 in1007.1 mb 0.00 in0.0 mm 0.00 in0.0 mm 3.10 in78.7 mm
06:40 PM 88.0°F31.1°C 77.0°F25.0°C 70% Calm Calm -- 29.74 in1007.1 mb 0.00 in0.0 mm 0.00 in0.0 mm 3.10 in78.7 mm
06:46 PM 87.6°F30.9°C 77.1°F25.1°C 71% Calm Calm -- 29.74 in1007.1 mb 0.00 in0.0 mm 0.00 in0.0 mm 3.10 in78.7 mm
06:51 PM 87.6°F30.9°C 77.1°F25.1°C 71% Calm Calm -- 29.74 in1007.1 mb 0.00 in0.0 mm 0.00 in0.0 mm 3.10 in78.7 mm
06:57 PM 87.1°F30.6°C 76.6°F24.8°C 71% Calm Calm -- 29.75 in1007.5 mb 0.00 in0.0 mm 0.00 in0.0 mm 3.10 in78.7 mm
07:01 PM 87.1°F30.6°C 76.6°F24.8°C 71% Calm Calm -- 29.75 in1007.5 mb 0.00 in0.0 mm 0.00 in0.0 mm 3.10 in78.7 mm
07:08 PM 86.7°F30.4°C 76.6°F24.8°C 72% Calm Calm -- 29.75 in1007.5 mb 0.00 in0.0 mm 0.00 in0.0 mm 3.10 in78.7 mm
07:12 PM 86.7°F30.4°C 77.1°F25.1°C 73% Calm Calm -- 29.75 in1007.5 mb 0.00 in0.0 mm 0.00 in0.0 mm 3.10 in78.7 mm
07:19 PM 86.4°F30.2°C 77.1°F25.1°C 74% Calm Calm -- 29.76 in1007.8 mb 0.00 in0.0 mm 0.00 in0.0 mm 3.10 in78.7 mm
07:23 PM 86.2°F30.1°C 77.3°F25.2°C 75% Calm Calm -- 29.76 in1007.8 mb 0.00 in0.0 mm 0.00 in0.0 mm 3.10 in78.7 mm
07:29 PM 85.8°F29.9°C 77.0°F25.0°C 75% Calm Calm -- 29.76 in1007.8 mb 0.00 in0.0 mm 0.00 in0.0 mm 3.10 in78.7 mm
07:34 PM 85.6°F29.8°C 77.2°F25.1°C 76% Calm Calm -- 29.76 in1007.8 mb 0.00 in0.0 mm 0.00 in0.0 mm 3.10 in78.7 mm
07:40 PM 85.5°F29.7°C 77.4°F25.2°C 77% Calm Calm -- 29.76 in1007.8 mb 0.00 in0.0 mm 0.00 in0.0 mm 3.10 in78.7 mm
07:44 PM 85.3°F29.6°C 77.3°F25.2°C 77% Calm Calm -- 29.76 in1007.8 mb 0.00 in0.0 mm 0.00 in0.0 mm 3.10 in78.7 mm
07:51 PM 85.1°F29.5°C 77.5°F25.3°C 78% Calm Calm -- 29.77 in1008.1 mb 0.00 in0.0 mm 0.00 in0.0 mm 3.10 in78.7 mm
07:55 PM 85.1°F29.5°C 77.5°F25.3°C 78% Calm Calm -- 29.78 in1008.5 mb 0.00 in0.0 mm 0.00 in0.0 mm 3.10 in78.7 mm
07:59 PM 85.1°F29.5°C 77.1°F25.1°C 77% Calm Calm -- 29.78 in1008.5 mb 0.00 in0.0 mm 0.00 in0.0 mm 3.10 in78.7 mm
08:06 PM 85.1°F29.5°C 77.1°F25.1°C 77% Calm Calm -- 29.78 in1008.5 mb 0.00 in0.0 mm 0.00 in0.0 mm 3.10 in78.7 mm
08:10 PM 85.1°F29.5°C 77.1°F25.1°C 77% Calm Calm -- 29.78 in1008.5 mb 0.00 in0.0 mm 0.00 in0.0 mm 3.10 in78.7 mm
08:14 PM 84.9°F29.4°C 76.9°F24.9°C 77% Calm Calm -- 29.78 in1008.5 mb 0.00 in0.0 mm 0.00 in0.0 mm 3.10 in78.7 mm
08:21 PM 84.9°F29.4°C 76.9°F24.9°C 77% Calm Calm -- 29.79 in1008.8 mb 0.00 in0.0 mm 0.00 in0.0 mm 3.10 in78.7 mm
08:25 PM 84.9°F29.4°C 76.9°F24.9°C 77% Calm Calm -- 29.79 in1008.8 mb 0.00 in0.0 mm 0.00 in0.0 mm 3.10 in78.7 mm
08:31 PM 84.7°F29.3°C 76.7°F24.8°C 77% Calm Calm -- 29.80 in1009.1 mb 0.00 in0.0 mm 0.00 in0.0 mm 3.10 in78.7 mm
08:36 PM 84.7°F29.3°C 76.7°F24.8°C 77% Calm Calm -- 29.80 in1009.1 mb 0.00 in0.0 mm 0.00 in0.0 mm 3.10 in78.7 mm
08:42 PM 84.7°F29.3°C 76.7°F24.8°C 77% Calm Calm -- 29.81 in1009.5 mb 0.00 in0.0 mm 0.00 in0.0 mm 3.10 in78.7 mm
08:46 PM 84.6°F29.2°C 76.5°F24.7°C 77% Calm Calm -- 29.81 in1009.5 mb 0.00 in0.0 mm 0.00 in0.0 mm 3.10 in78.7 mm
08:53 PM 84.6°F29.2°C 76.5°F24.7°C 77% Calm Calm -- 29.82 in1009.8 mb 0.00 in0.0 mm 0.00 in0.0 mm 3.10 in78.7 mm
08:57 PM 84.4°F29.1°C 76.4°F24.7°C 77% Calm Calm -- 29.81 in1009.5 mb 0.00 in0.0 mm 0.00 in0.0 mm 3.10 in78.7 mm
09:04 PM 84.4°F29.1°C 76.4°F24.7°C 77% Calm Calm -- 29.81 in1009.5 mb 0.00 in0.0 mm 0.00 in0.0 mm 3.10 in78.7 mm
09:08 PM 84.4°F29.1°C 76.4°F24.7°C 77% Calm Calm -- 29.82 in1009.8 mb 0.00 in0.0 mm 0.00 in0.0 mm 3.10 in78.7 mm
09:12 PM 84.4°F29.1°C 76.7°F24.8°C 78% Calm Calm -- 29.82 in1009.8 mb 0.00 in0.0 mm 0.00 in0.0 mm 3.10 in78.7 mm
09:18 PM 84.2°F29.0°C 76.6°F24.8°C 78% Calm Calm -- 29.81 in1009.5 mb 0.00 in0.0 mm 0.00 in0.0 mm 3.10 in78.7 mm
09:23 PM 84.0°F28.9°C 76.4°F24.7°C 78% Calm Calm -- 29.81 in1009.5 mb 0.00 in0.0 mm 0.00 in0.0 mm 3.10 in78.7 mm
09:27 PM 84.0°F28.9°C 76.4°F24.7°C 78% Calm Calm -- 29.82 in1009.8 mb 0.00 in0.0 mm 0.00 in0.0 mm 3.10 in78.7 mm
09:34 PM 84.0°F28.9°C 76.4°F24.7°C 78% Calm Calm -- 29.83 in1010.2 mb 0.00 in0.0 mm 0.00 in0.0 mm 3.10 in78.7 mm
09:38 PM 84.0°F28.9°C 76.8°F24.9°C 79% Calm Calm -- 29.83 in1010.2 mb 0.00 in0.0 mm 0.00 in0.0 mm 3.10 in78.7 mm
09:44 PM 83.8°F28.8°C 76.6°F24.8°C 79% Calm Calm -- 29.82 in1009.8 mb 0.00 in0.0 mm 0.00 in0.0 mm 3.10 in78.7 mm
09:49 PM 83.8°F28.8°C 76.6°F24.8°C 79% Calm Calm -- 29.83 in1010.2 mb 0.00 in0.0 mm 0.00 in0.0 mm 3.10 in78.7 mm
09:53 PM 83.8°F28.8°C 76.6°F24.8°C 79% Calm Calm -- 29.83 in1010.2 mb 0.00 in0.0 mm 0.00 in0.0 mm 3.10 in78.7 mm
09:59 PM 83.5°F28.6°C 76.3°F24.6°C 79% Calm Calm -- 29.82 in1009.8 mb 0.00 in0.0 mm 0.00 in0.0 mm 3.10 in78.7 mm
10:03 PM 83.5°F28.6°C 76.7°F24.8°C 80% Calm Calm -- 29.82 in1009.8 mb 0.00 in0.0 mm 0.00 in0.0 mm 3.10 in78.7 mm
10:08 PM 83.3°F28.5°C 76.6°F24.8°C 80% Calm Calm -- 29.83 in1010.2 mb 0.00 in0.0 mm 0.00 in0.0 mm 3.10 in78.7 mm
10:14 PM 83.3°F28.5°C 76.9°F24.9°C 81% Calm Calm -- 29.83 in1010.2 mb 0.00 in0.0 mm 0.00 in0.0 mm 3.10 in78.7 mm
10:21 PM 83.1°F28.4°C 76.0°F24.4°C 79% Calm Calm -- 29.83 in1010.2 mb 0.00 in0.0 mm 0.00 in0.0 mm 3.10 in78.7 mm
10:25 PM 82.9°F28.3°C 75.8°F24.3°C 79% Calm Calm -- 29.83 in1010.2 mb 0.00 in0.0 mm 0.00 in0.0 mm 3.10 in78.7 mm
10:31 PM 82.8°F28.2°C 75.7°F24.3°C 79% Calm Calm -- 29.83 in1010.2 mb 0.00 in0.0 mm 0.00 in0.0 mm 3.10 in78.7 mm
10:36 PM 82.6°F28.1°C 75.9°F24.4°C 80% Calm Calm -- 29.83 in1010.2 mb 0.00 in0.0 mm 0.00 in0.0 mm 3.10 in78.7 mm
10:40 PM 82.2°F27.9°C 75.6°F24.2°C 80% Calm Calm -- 29.83 in1010.2 mb 0.00 in0.0 mm 0.00 in0.0 mm 3.10 in78.7 mm
10:46 PM 82.0°F27.8°C 75.7°F24.3°C 81% Calm Calm -- 29.83 in1010.2 mb 0.00 in0.0 mm 0.00 in0.0 mm 3.10 in78.7 mm
10:51 PM 81.7°F27.6°C 75.4°F24.1°C 81% Calm Calm -- 29.84 in1010.5 mb 0.00 in0.0 mm 0.00 in0.0 mm 3.10 in78.7 mm
10:57 PM 81.5°F27.5°C 75.5°F24.2°C 82% Calm Calm -- 29.83 in1010.2 mb 0.00 in0.0 mm 0.00 in0.0 mm 3.10 in78.7 mm
11:01 PM 81.3°F27.4°C 75.7°F24.3°C 83% Calm Calm -- 29.83 in1010.2 mb 0.00 in0.0 mm 0.00 in0.0 mm 3.10 in78.7 mm
11:08 PM 81.1°F27.3°C 75.8°F24.3°C 84% Calm Calm -- 29.83 in1010.2 mb 0.00 in0.0 mm 0.00 in0.0 mm 3.10 in78.7 mm
11:12 PM 81.1°F27.3°C 75.8°F24.3°C 84% Calm Calm -- 29.84 in1010.5 mb 0.00 in0.0 mm 0.00 in0.0 mm 3.10 in78.7 mm
11:18 PM 80.8°F27.1°C 75.8°F24.3°C 85% Calm Calm -- 29.83 in1010.2 mb 0.00 in0.0 mm 0.00 in0.0 mm 3.10 in78.7 mm
11:23 PM 80.8°F27.1°C 75.8°F24.3°C 85% Calm Calm -- 29.83 in1010.2 mb 0.00 in0.0 mm 0.00 in0.0 mm 3.10 in78.7 mm
11:27 PM 80.8°F27.1°C 75.8°F24.3°C 85% Calm Calm -- 29.83 in1010.2 mb 0.00 in0.0 mm 0.00 in0.0 mm 3.10 in78.7 mm
11:33 PM 80.8°F27.1°C 75.8°F24.3°C 85% Calm Calm -- 29.83 in1010.2 mb 0.00 in0.0 mm 0.00 in0.0 mm 3.10 in78.7 mm
11:38 PM 80.6°F27.0°C 75.7°F24.3°C 85% Calm Calm -- 29.83 in1010.2 mb 0.00 in0.0 mm 0.00 in0.0 mm 3.10 in78.7 mm
11:42 PM 80.6°F27.0°C 75.3°F24.1°C 84% Calm Calm -- 29.83 in1010.2 mb 0.00 in0.0 mm 0.00 in0.0 mm 3.10 in78.7 mm
11:48 PM 80.4°F26.9°C 75.5°F24.2°C 85% Calm Calm -- 29.83 in1010.2 mb 0.00 in0.0 mm 0.00 in0.0 mm 3.10 in78.7 mm
11:53 PM 80.4°F26.9°C 75.5°F24.2°C 85% Calm Calm -- 29.83 in1010.2 mb 0.00 in0.0 mm 0.00 in0.0 mm 3.10 in78.7 mm
11:57 PM 80.4°F26.9°C 75.5°F24.2°C 85% Calm Calm -- 29.82 in1009.8 mb 0.00 in0.0 mm 0.00 in0.0 mm 3.10 in78.7 mm